sensor_id;sensor_type;location;lat;lon;timestamp;temperature;humidity
75961;SHT30;64644;48.914;2.254;2022-11-20T00:02:18;11.57;66.40
75961;SHT30;64644;48.914;2.254;2022-11-20T00:04:44;11.57;66.33
75961;SHT30;64644;48.914;2.254;2022-11-20T00:07:09;11.54;66.24
75961;SHT30;64644;48.914;2.254;2022-11-20T00:09:35;11.54;66.32
75961;SHT30;64644;48.914;2.254;2022-11-20T00:12:00;11.48;66.30
75961;SHT30;64644;48.914;2.254;2022-11-20T00:14:25;11.45;66.38
75961;SHT30;64644;48.914;2.254;2022-11-20T00:16:51;11.42;66.39
75961;SHT30;64644;48.914;2.254;2022-11-20T00:19:16;11.41;66.57
75961;SHT30;64644;48.914;2.254;2022-11-20T00:21:42;11.40;66.49
75961;SHT30;64644;48.914;2.254;2022-11-20T00:24:08;11.35;66.36
75961;SHT30;64644;48.914;2.254;2022-11-20T00:26:35;11.33;66.39
75961;SHT30;64644;48.914;2.254;2022-11-20T00:29:01;11.34;66.48
75961;SHT30;64644;48.914;2.254;2022-11-20T00:31:27;11.34;66.47
75961;SHT30;64644;48.914;2.254;2022-11-20T00:33:53;11.34;66.37
75961;SHT30;64644;48.914;2.254;2022-11-20T00:36:26;11.37;66.54
75961;SHT30;64644;48.914;2.254;2022-11-20T00:38:53;11.35;66.41
75961;SHT30;64644;48.914;2.254;2022-11-20T00:41:19;11.38;66.44
75961;SHT30;64644;48.914;2.254;2022-11-20T00:43:44;11.34;66.46
75961;SHT30;64644;48.914;2.254;2022-11-20T00:46:17;11.31;66.19
75961;SHT30;64644;48.914;2.254;2022-11-20T00:48:43;11.30;66.39
75961;SHT30;64644;48.914;2.254;2022-11-20T00:51:11;11.30;66.24
75961;SHT30;64644;48.914;2.254;2022-11-20T00:53:37;11.27;66.29
75961;SHT30;64644;48.914;2.254;2022-11-20T00:56:05;11.26;66.20
75961;SHT30;64644;48.914;2.254;2022-11-20T00:58:37;11.24;66.13
75961;SHT30;64644;48.914;2.254;2022-11-20T01:01:08;11.19;66.02
75961;SHT30;64644;48.914;2.254;2022-11-20T01:03:36;11.14;66.01
75961;SHT30;64644;48.914;2.254;2022-11-20T01:06:04;11.13;66.04
75961;SHT30;64644;48.914;2.254;2022-11-20T01:08:31;11.16;66.08
75961;SHT30;64644;48.914;2.254;2022-11-20T01:11:09;11.10;66.04
75961;SHT30;64644;48.914;2.254;2022-11-20T01:13:35;11.07;66.00
75961;SHT30;64644;48.914;2.254;2022-11-20T01:16:07;11.02;65.78
75961;SHT30;64644;48.914;2.254;2022-11-20T01:18:34;10.97;65.80
75961;SHT30;64644;48.914;2.254;2022-11-20T01:21:10;10.91;65.83
75961;SHT30;64644;48.914;2.254;2022-11-20T01:23:38;10.92;65.78
75961;SHT30;64644;48.914;2.254;2022-11-20T01:26:07;10.86;65.79
75961;SHT30;64644;48.914;2.254;2022-11-20T01:28:33;10.80;65.93
75961;SHT30;64644;48.914;2.254;2022-11-20T01:30:59;10.80;65.76
75961;SHT30;64644;48.914;2.254;2022-11-20T01:33:25;10.78;65.84
75961;SHT30;64644;48.914;2.254;2022-11-20T01:35:51;10.75;65.87
75961;SHT30;64644;48.914;2.254;2022-11-20T01:38:17;10.69;65.81
75961;SHT30;64644;48.914;2.254;2022-11-20T01:40:42;10.65;65.93
75961;SHT30;64644;48.914;2.254;2022-11-20T01:43:18;10.64;65.91
75961;SHT30;64644;48.914;2.254;2022-11-20T01:48:19;10.62;65.91
75961;SHT30;64644;48.914;2.254;2022-11-20T01:50:46;10.61;65.75
75961;SHT30;64644;48.914;2.254;2022-11-20T01:53:15;10.62;65.84
75961;SHT30;64644;48.914;2.254;2022-11-20T01:55:48;10.61;65.71
75961;SHT30;64644;48.914;2.254;2022-11-20T01:58:15;10.61;65.79
75961;SHT30;64644;48.914;2.254;2022-11-20T02:00:41;10.64;65.70
75961;SHT30;64644;48.914;2.254;2022-11-20T02:03:11;10.60;65.75
75961;SHT30;64644;48.914;2.254;2022-11-20T02:08:26;10.62;65.80
75961;SHT30;64644;48.914;2.254;2022-11-20T02:10:51;10.65;65.87
75961;SHT30;64644;48.914;2.254;2022-11-20T02:13:17;10.64;65.76
75961;SHT30;64644;48.914;2.254;2022-11-20T02:16:02;10.65;65.86
75961;SHT30;64644;48.914;2.254;2022-11-20T02:18:28;10.67;65.79
75961;SHT30;64644;48.914;2.254;2022-11-20T02:21:21;10.67;65.73
75961;SHT30;64644;48.914;2.254;2022-11-20T02:24:10;10.67;65.85
75961;SHT30;64644;48.914;2.254;2022-11-20T02:26:59;10.68;65.76
75961;SHT30;64644;48.914;2.254;2022-11-20T02:29:43;10.68;65.68
75961;SHT30;64644;48.914;2.254;2022-11-20T02:32:23;10.68;65.59
75961;SHT30;64644;48.914;2.254;2022-11-20T02:34:49;10.69;65.58
75961;SHT30;64644;48.914;2.254;2022-11-20T02:37:15;10.68;65.55
75961;SHT30;64644;48.914;2.254;2022-11-20T02:39:41;10.68;65.58
75961;SHT30;64644;48.914;2.254;2022-11-20T02:42:07;10.67;65.55
75961;SHT30;64644;48.914;2.254;2022-11-20T02:44:32;10.68;65.52
75961;SHT30;64644;48.914;2.254;2022-11-20T02:46:58;10.65;65.49
75961;SHT30;64644;48.914;2.254;2022-11-20T02:49:24;10.62;65.54
75961;SHT30;64644;48.914;2.254;2022-11-20T02:51:50;10.67;65.67
75961;SHT30;64644;48.914;2.254;2022-11-20T02:54:16;10.64;65.62
75961;SHT30;64644;48.914;2.254;2022-11-20T02:56:41;10.61;65.54
75961;SHT30;64644;48.914;2.254;2022-11-20T02:59:07;10.61;65.60
75961;SHT30;64644;48.914;2.254;2022-11-20T03:01:32;10.57;65.64
75961;SHT30;64644;48.914;2.254;2022-11-20T03:03:58;10.51;65.64
75961;SHT30;64644;48.914;2.254;2022-11-20T03:06:23;10.51;65.76
75961;SHT30;64644;48.914;2.254;2022-11-20T03:08:48;10.51;65.71
75961;SHT30;64644;48.914;2.254;2022-11-20T03:11:14;10.51;65.99
75961;SHT30;64644;48.914;2.254;2022-11-20T03:13:39;10.48;65.82
75961;SHT30;64644;48.914;2.254;2022-11-20T03:16:09;10.52;65.90
75961;SHT30;64644;48.914;2.254;2022-11-20T03:18:35;10.48;66.00
75961;SHT30;64644;48.914;2.254;2022-11-20T03:21:00;10.50;66.11
75961;SHT30;64644;48.914;2.254;2022-11-20T03:23:28;10.52;65.97
75961;SHT30;64644;48.914;2.254;2022-11-20T03:25:54;10.51;65.82
75961;SHT30;64644;48.914;2.254;2022-11-20T03:28:19;10.52;65.86
75961;SHT30;64644;48.914;2.254;2022-11-20T03:30:45;10.51;65.90
75961;SHT30;64644;48.914;2.254;2022-11-20T03:33:10;10.48;65.85
75961;SHT30;64644;48.914;2.254;2022-11-20T03:35:35;10.48;65.93
75961;SHT30;64644;48.914;2.254;2022-11-20T03:38:01;10.52;65.91
75961;SHT30;64644;48.914;2.254;2022-11-20T03:40:26;10.52;65.93
75961;SHT30;64644;48.914;2.254;2022-11-20T03:42:52;10.52;66.05
75961;SHT30;64644;48.914;2.254;2022-11-20T03:45:18;10.52;66.08
75961;SHT30;64644;48.914;2.254;2022-11-20T03:47:44;10.52;66.01
75961;SHT30;64644;48.914;2.254;2022-11-20T03:50:11;10.52;65.90
75961;SHT30;64644;48.914;2.254;2022-11-20T03:52:38;10.51;66.00
75961;SHT30;64644;48.914;2.254;2022-11-20T03:55:04;10.51;65.85
75961;SHT30;64644;48.914;2.254;2022-11-20T03:57:30;10.50;65.89
75961;SHT30;64644;48.914;2.254;2022-11-20T03:59:55;10.50;66.02
75961;SHT30;64644;48.914;2.254;2022-11-20T04:02:20;10.48;65.94
75961;SHT30;64644;48.914;2.254;2022-11-20T04:04:46;10.47;66.06
75961;SHT30;64644;48.914;2.254;2022-11-20T04:07:14;10.48;66.06
75961;SHT30;64644;48.914;2.254;2022-11-20T04:09:40;10.51;66.02
75961;SHT30;64644;48.914;2.254;2022-11-20T04:12:05;10.54;66.13
75961;SHT30;64644;48.914;2.254;2022-11-20T04:14:31;10.54;65.99
75961;SHT30;64644;48.914;2.254;2022-11-20T04:16:56;10.54;66.01
75961;SHT30;64644;48.914;2.254;2022-11-20T04:19:22;10.57;66.09
75961;SHT30;64644;48.914;2.254;2022-11-20T04:21:47;10.60;66.02
75961;SHT30;64644;48.914;2.254;2022-11-20T04:24:12;10.61;66.09
75961;SHT30;64644;48.914;2.254;2022-11-20T04:26:38;10.62;66.12
75961;SHT30;64644;48.914;2.254;2022-11-20T04:29:04;10.67;66.07
75961;SHT30;64644;48.914;2.254;2022-11-20T04:31:31;10.64;66.27
75961;SHT30;64644;48.914;2.254;2022-11-20T04:34:05;10.67;66.19
75961;SHT30;64644;48.914;2.254;2022-11-20T04:36:31;10.68;66.38
75961;SHT30;64644;48.914;2.254;2022-11-20T04:39:02;10.68;66.35
75961;SHT30;64644;48.914;2.254;2022-11-20T04:41:31;10.71;66.24
75961;SHT30;64644;48.914;2.254;2022-11-20T04:43:59;10.72;66.08
75961;SHT30;64644;48.914;2.254;2022-11-20T04:46:28;10.72;66.08
75961;SHT30;64644;48.914;2.254;2022-11-20T04:48:54;10.68;65.89
75961;SHT30;64644;48.914;2.254;2022-11-20T04:51:20;10.65;65.85
75961;SHT30;64644;48.914;2.254;2022-11-20T04:53:45;10.62;65.93
75961;SHT30;64644;48.914;2.254;2022-11-20T04:56:12;10.58;65.87
75961;SHT30;64644;48.914;2.254;2022-11-20T04:58:38;10.57;65.86
75961;SHT30;64644;48.914;2.254;2022-11-20T05:01:10;10.55;65.86
75961;SHT30;64644;48.914;2.254;2022-11-20T05:03:36;10.54;65.86
75961;SHT30;64644;48.914;2.254;2022-11-20T05:06:03;10.54;65.89
75961;SHT30;64644;48.914;2.254;2022-11-20T05:08:30;10.55;65.88
75961;SHT30;64644;48.914;2.254;2022-11-20T05:11:04;10.54;65.97
75961;SHT30;64644;48.914;2.254;2022-11-20T05:13:30;10.55;65.82
75961;SHT30;64644;48.914;2.254;2022-11-20T05:15:55;10.57;65.78
75961;SHT30;64644;48.914;2.254;2022-11-20T05:18:25;10.55;65.75
75961;SHT30;64644;48.914;2.254;2022-11-20T05:20:55;10.58;65.60
75961;SHT30;64644;48.914;2.254;2022-11-20T05:23:20;10.58;65.83
75961;SHT30;64644;48.914;2.254;2022-11-20T05:25:45;10.55;65.62
75961;SHT30;64644;48.914;2.254;2022-11-20T05:28:11;10.55;65.65
75961;SHT30;64644;48.914;2.254;2022-11-20T05:30:36;10.51;65.65
75961;SHT30;64644;48.914;2.254;2022-11-20T05:33:02;10.48;65.64
75961;SHT30;64644;48.914;2.254;2022-11-20T05:35:27;10.45;65.66
75961;SHT30;64644;48.914;2.254;2022-11-20T05:37:53;10.41;65.49
75961;SHT30;64644;48.914;2.254;2022-11-20T05:40:18;10.40;65.55
75961;SHT30;64644;48.914;2.254;2022-11-20T05:42:43;10.38;65.41
75961;SHT30;64644;48.914;2.254;2022-11-20T05:45:09;10.40;65.64
75961;SHT30;64644;48.914;2.254;2022-11-20T05:47:34;10.37;65.51
75961;SHT30;64644;48.914;2.254;2022-11-20T05:50:01;10.40;65.47
75961;SHT30;64644;48.914;2.254;2022-11-20T05:52:30;10.40;65.48
75961;SHT30;64644;48.914;2.254;2022-11-20T05:54:55;10.41;65.54
75961;SHT30;64644;48.914;2.254;2022-11-20T05:57:21;10.43;65.52
75961;SHT30;64644;48.914;2.254;2022-11-20T05:59:46;10.47;65.62
75961;SHT30;64644;48.914;2.254;2022-11-20T06:02:12;10.47;65.59
75961;SHT30;64644;48.914;2.254;2022-11-20T06:04:37;10.51;65.61
75961;SHT30;64644;48.914;2.254;2022-11-20T06:07:05;10.54;65.64
75961;SHT30;64644;48.914;2.254;2022-11-20T06:09:30;10.58;65.76
75961;SHT30;64644;48.914;2.254;2022-11-20T06:11:56;10.58;65.74
75961;SHT30;64644;48.914;2.254;2022-11-20T06:14:21;10.60;65.60
75961;SHT30;64644;48.914;2.254;2022-11-20T06:16:47;10.62;65.63
75961;SHT30;64644;48.914;2.254;2022-11-20T06:19:12;10.65;65.63
75961;SHT30;64644;48.914;2.254;2022-11-20T06:21:37;10.65;65.63
75961;SHT30;64644;48.914;2.254;2022-11-20T06:24:03;10.68;65.62
75961;SHT30;64644;48.914;2.254;2022-11-20T06:26:30;10.71;65.75
75961;SHT30;64644;48.914;2.254;2022-11-20T06:28:56;10.67;65.45
75961;SHT30;64644;48.914;2.254;2022-11-20T06:31:23;10.67;65.46
75961;SHT30;64644;48.914;2.254;2022-11-20T06:33:50;10.65;65.56
75961;SHT30;64644;48.914;2.254;2022-11-20T06:36:17;10.67;65.56
75961;SHT30;64644;48.914;2.254;2022-11-20T06:38:43;10.67;65.52
75961;SHT30;64644;48.914;2.254;2022-11-20T06:41:14;10.68;65.43
75961;SHT30;64644;48.914;2.254;2022-11-20T06:43:40;10.67;65.39
75961;SHT30;64644;48.914;2.254;2022-11-20T06:46:06;10.65;65.14
75961;SHT30;64644;48.914;2.254;2022-11-20T06:48:32;10.65;65.15
75961;SHT30;64644;48.914;2.254;2022-11-20T06:50:58;10.65;65.07
75961;SHT30;64644;48.914;2.254;2022-11-20T06:53:24;10.64;65.15
75961;SHT30;64644;48.914;2.254;2022-11-20T06:55:50;10.61;65.01
75961;SHT30;64644;48.914;2.254;2022-11-20T06:58:16;10.61;65.13
75961;SHT30;64644;48.914;2.254;2022-11-20T07:00:42;10.55;65.00
75961;SHT30;64644;48.914;2.254;2022-11-20T07:03:10;10.57;65.16
75961;SHT30;64644;48.914;2.254;2022-11-20T07:05:36;10.54;65.06
75961;SHT30;64644;48.914;2.254;2022-11-20T07:08:02;10.51;65.15
75961;SHT30;64644;48.914;2.254;2022-11-20T07:10:28;10.48;64.94
75961;SHT30;64644;48.914;2.254;2022-11-20T07:12:54;10.44;64.95
75961;SHT30;64644;48.914;2.254;2022-11-20T07:15:21;10.40;64.84
75961;SHT30;64644;48.914;2.254;2022-11-20T07:17:47;10.38;64.80
75961;SHT30;64644;48.914;2.254;2022-11-20T07:20:13;10.33;64.93
75961;SHT30;64644;48.914;2.254;2022-11-20T07:22:38;10.33;64.74
75961;SHT30;64644;48.914;2.254;2022-11-20T07:25:04;10.29;64.95
75961;SHT30;64644;48.914;2.254;2022-11-20T07:27:30;10.32;64.75
75961;SHT30;64644;48.914;2.254;2022-11-20T07:29:56;10.27;64.67
75961;SHT30;64644;48.914;2.254;2022-11-20T07:32:21;10.30;64.80
75961;SHT30;64644;48.914;2.254;2022-11-20T07:34:47;10.33;64.62
75961;SHT30;64644;48.914;2.254;2022-11-20T07:37:13;10.34;64.57
75961;SHT30;64644;48.914;2.254;2022-11-20T07:39:38;10.37;64.63
75961;SHT30;64644;48.914;2.254;2022-11-20T07:42:04;10.37;64.24
75961;SHT30;64644;48.914;2.254;2022-11-20T07:44:30;10.43;64.37
75961;SHT30;64644;48.914;2.254;2022-11-20T07:46:56;10.45;64.31
75961;SHT30;64644;48.914;2.254;2022-11-20T07:49:21;10.47;64.04
75961;SHT30;64644;48.914;2.254;2022-11-20T07:51:46;10.44;63.89
75961;SHT30;64644;48.914;2.254;2022-11-20T07:54:12;10.45;63.84
75961;SHT30;64644;48.914;2.254;2022-11-20T07:56:37;10.47;63.66
75961;SHT30;64644;48.914;2.254;2022-11-20T07:59:03;10.47;64.02
75961;SHT30;64644;48.914;2.254;2022-11-20T08:01:28;10.48;64.07
75961;SHT30;64644;48.914;2.254;2022-11-20T08:03:53;10.47;64.13
75961;SHT30;64644;48.914;2.254;2022-11-20T08:06:19;10.44;64.17
75961;SHT30;64644;48.914;2.254;2022-11-20T08:08:45;10.41;64.08
75961;SHT30;64644;48.914;2.254;2022-11-20T08:11:10;10.47;64.25
75961;SHT30;64644;48.914;2.254;2022-11-20T08:13:54;10.48;64.29
75961;SHT30;64644;48.914;2.254;2022-11-20T08:16:47;10.50;64.42
75961;SHT30;64644;48.914;2.254;2022-11-20T08:19:15;10.50;64.55
75961;SHT30;64644;48.914;2.254;2022-11-20T08:21:41;10.48;64.63
75961;SHT30;64644;48.914;2.254;2022-11-20T08:24:09;10.50;64.67
75961;SHT30;64644;48.914;2.254;2022-11-20T08:26:35;10.47;64.80
75961;SHT30;64644;48.914;2.254;2022-11-20T08:29:02;10.48;64.94
75961;SHT30;64644;48.914;2.254;2022-11-20T08:31:27;10.50;65.15
75961;SHT30;64644;48.914;2.254;2022-11-20T08:33:53;10.48;65.34
75961;SHT30;64644;48.914;2.254;2022-11-20T08:36:20;10.50;65.21
75961;SHT30;64644;48.914;2.254;2022-11-20T08:38:50;10.51;65.61
75961;SHT30;64644;48.914;2.254;2022-11-20T08:41:16;10.52;65.50
75961;SHT30;64644;48.914;2.254;2022-11-20T08:44:00;10.54;65.69
75961;SHT30;64644;48.914;2.254;2022-11-20T08:46:31;10.52;65.75
75961;SHT30;64644;48.914;2.254;2022-11-20T08:48:58;10.47;65.86
75961;SHT30;64644;48.914;2.254;2022-11-20T08:51:23;10.44;66.18
75961;SHT30;64644;48.914;2.254;2022-11-20T08:53:48;10.41;66.69
75961;SHT30;64644;48.914;2.254;2022-11-20T08:56:14;10.43;66.57
75961;SHT30;64644;48.914;2.254;2022-11-20T08:58:40;10.43;66.49
75961;SHT30;64644;48.914;2.254;2022-11-20T09:01:05;10.41;66.56
75961;SHT30;64644;48.914;2.254;2022-11-20T09:03:31;10.32;66.88
75961;SHT30;64644;48.914;2.254;2022-11-20T09:06:02;10.26;67.18
75961;SHT30;64644;48.914;2.254;2022-11-20T09:08:28;10.24;67.50
75961;SHT30;64644;48.914;2.254;2022-11-20T09:10:55;10.27;68.02
75961;SHT30;64644;48.914;2.254;2022-11-20T09:13:21;10.26;68.26
75961;SHT30;64644;48.914;2.254;2022-11-20T09:15:48;10.29;68.03
75961;SHT30;64644;48.914;2.254;2022-11-20T09:18:17;10.27;68.23
75961;SHT30;64644;48.914;2.254;2022-11-20T09:20:42;10.29;68.31
75961;SHT30;64644;48.914;2.254;2022-11-20T09:23:08;10.32;67.80
75961;SHT30;64644;48.914;2.254;2022-11-20T09:25:33;10.29;68.81
75961;SHT30;64644;48.914;2.254;2022-11-20T09:27:59;10.33;68.04
75961;SHT30;64644;48.914;2.254;2022-11-20T09:30:26;10.33;68.48
75961;SHT30;64644;48.914;2.254;2022-11-20T09:32:51;10.36;68.96
75961;SHT30;64644;48.914;2.254;2022-11-20T09:35:17;10.37;69.12
75961;SHT30;64644;48.914;2.254;2022-11-20T09:37:43;10.40;68.29
75961;SHT30;64644;48.914;2.254;2022-11-20T09:40:23;10.36;69.03
75961;SHT30;64644;48.914;2.254;2022-11-20T09:43:07;10.36;69.07
75961;SHT30;64644;48.914;2.254;2022-11-20T09:45:58;10.30;69.63
75961;SHT30;64644;48.914;2.254;2022-11-20T09:48:56;10.27;69.29
75961;SHT30;64644;48.914;2.254;2022-11-20T09:51:46;10.27;69.18
75961;SHT30;64644;48.914;2.254;2022-11-20T09:54:19;10.23;69.90
75961;SHT30;64644;48.914;2.254;2022-11-20T09:56:52;10.23;70.43
75961;SHT30;64644;48.914;2.254;2022-11-20T09:59:33;10.23;70.02
75961;SHT30;64644;48.914;2.254;2022-11-20T10:02:02;10.24;70.23
75961;SHT30;64644;48.914;2.254;2022-11-20T10:04:33;10.27;70.57
75961;SHT30;64644;48.914;2.254;2022-11-20T10:07:36;10.23;70.05
75961;SHT30;64644;48.914;2.254;2022-11-20T10:09:58;10.23;70.72
75961;SHT30;64644;48.914;2.254;2022-11-20T10:15:55;10.23;71.13
75961;SHT30;64644;48.914;2.254;2022-11-20T10:26:49;10.32;71.98
75961;SHT30;64644;48.914;2.254;2022-11-20T10:29:34;10.38;71.56
75961;SHT30;64644;48.914;2.254;2022-11-20T10:32:03;10.40;71.59
75961;SHT30;64644;48.914;2.254;2022-11-20T10:34:48;10.43;70.83
75961;SHT30;64644;48.914;2.254;2022-11-20T10:37:26;10.43;72.00
75961;SHT30;64644;48.914;2.254;2022-11-20T10:42:55;10.50;71.83
75961;SHT30;64644;48.914;2.254;2022-11-20T10:45:35;10.55;71.54
75961;SHT30;64644;48.914;2.254;2022-11-20T10:48:11;10.58;72.20
75961;SHT30;64644;48.914;2.254;2022-11-20T10:50:45;10.61;71.40
75961;SHT30;64644;48.914;2.254;2022-11-20T10:56:05;10.61;72.09
75961;SHT30;64644;48.914;2.254;2022-11-20T10:58:37;10.61;71.68
75961;SHT30;64644;48.914;2.254;2022-11-20T11:01:17;10.61;72.12
75961;SHT30;64644;48.914;2.254;2022-11-20T11:03:43;10.58;72.40
75961;SHT30;64644;48.914;2.254;2022-11-20T11:06:35;10.61;72.77
75961;SHT30;64644;48.914;2.254;2022-11-20T11:09:09;10.68;72.12
75961;SHT30;64644;48.914;2.254;2022-11-20T11:11:38;10.65;73.78
75961;SHT30;64644;48.914;2.254;2022-11-20T11:14:14;10.71;72.36
75961;SHT30;64644;48.914;2.254;2022-11-20T11:16:52;10.73;72.94
75961;SHT30;64644;48.914;2.254;2022-11-20T11:19:17;10.72;72.70
75961;SHT30;64644;48.914;2.254;2022-11-20T11:21:47;10.72;73.15
75961;SHT30;64644;48.914;2.254;2022-11-20T11:24:22;10.68;74.02
75961;SHT30;64644;48.914;2.254;2022-11-20T11:29:18;10.68;74.13
75961;SHT30;64644;48.914;2.254;2022-11-20T11:31:43;10.73;74.29
75961;SHT30;64644;48.914;2.254;2022-11-20T11:34:16;10.82;74.09
75961;SHT30;64644;48.914;2.254;2022-11-20T11:36:56;10.86;73.50
75961;SHT30;64644;48.914;2.254;2022-11-20T11:39:23;10.88;73.63
75961;SHT30;64644;48.914;2.254;2022-11-20T11:41:52;10.86;73.61
75961;SHT30;64644;48.914;2.254;2022-11-20T11:44:26;10.88;73.78
75961;SHT30;64644;48.914;2.254;2022-11-20T11:47:24;10.86;73.58
75961;SHT30;64644;48.914;2.254;2022-11-20T11:58:47;10.78;73.78
75961;SHT30;64644;48.914;2.254;2022-11-20T12:01:33;10.79;73.90
75961;SHT30;64644;48.914;2.254;2022-11-20T12:04:40;10.80;74.01
75961;SHT30;64644;48.914;2.254;2022-11-20T12:07:22;10.83;73.66
75961;SHT30;64644;48.914;2.254;2022-11-20T12:09:54;10.80;73.80
75961;SHT30;64644;48.914;2.254;2022-11-20T12:12:25;10.76;74.19
75961;SHT30;64644;48.914;2.254;2022-11-20T12:14:55;10.78;73.85
75961;SHT30;64644;48.914;2.254;2022-11-20T12:17:21;10.85;74.03
75961;SHT30;64644;48.914;2.254;2022-11-20T12:19:46;10.88;74.12
75961;SHT30;64644;48.914;2.254;2022-11-20T12:25:10;10.91;74.15
75961;SHT30;64644;48.914;2.254;2022-11-20T12:28:19;10.91;73.84
75961;SHT30;64644;48.914;2.254;2022-11-20T12:30:25;10.92;73.86
75961;SHT30;64644;48.914;2.254;2022-11-20T12:36:05;10.95;74.11
75961;SHT30;64644;48.914;2.254;2022-11-20T12:41:45;11.00;74.63
75961;SHT30;64644;48.914;2.254;2022-11-20T13:04:24;11.17;75.61
75961;SHT30;64644;48.914;2.254;2022-11-20T13:06:56;11.23;75.11
75961;SHT30;64644;48.914;2.254;2022-11-20T13:09:22;11.33;75.12
75961;SHT30;64644;48.914;2.254;2022-11-20T13:12:13;11.40;75.33
75961;SHT30;64644;48.914;2.254;2022-11-20T13:17:54;11.47;74.96
75961;SHT30;64644;48.914;2.254;2022-11-20T13:20:21;11.48;75.01
75961;SHT30;64644;48.914;2.254;2022-11-20T13:22:49;11.51;75.30
75961;SHT30;64644;48.914;2.254;2022-11-20T13:25:30;11.57;74.87
75961;SHT30;64644;48.914;2.254;2022-11-20T13:28:02;11.59;75.03
75961;SHT30;64644;48.914;2.254;2022-11-20T13:30:30;11.65;74.92
75961;SHT30;64644;48.914;2.254;2022-11-20T13:35:54;11.72;74.74
75961;SHT30;64644;48.914;2.254;2022-11-20T13:38:19;11.76;74.76
75961;SHT30;64644;48.914;2.254;2022-11-20T13:40:57;11.79;74.70
75961;SHT30;64644;48.914;2.254;2022-11-20T13:45:59;11.85;74.23
75961;SHT30;64644;48.914;2.254;2022-11-20T13:48:34;11.85;74.81
75961;SHT30;64644;48.914;2.254;2022-11-20T13:57:21;11.95;74.59
75961;SHT30;64644;48.914;2.254;2022-11-20T13:59:58;11.99;74.87
75961;SHT30;64644;48.914;2.254;2022-11-20T14:02:26;12.02;74.79
75961;SHT30;64644;48.914;2.254;2022-11-20T14:04:54;12.07;75.05
75961;SHT30;64644;48.914;2.254;2022-11-20T14:07:27;12.13;74.47
75961;SHT30;64644;48.914;2.254;2022-11-20T14:09:57;12.17;74.86
75961;SHT30;64644;48.914;2.254;2022-11-20T14:12:33;12.23;74.50
75961;SHT30;64644;48.914;2.254;2022-11-20T14:14:59;12.23;74.61
75961;SHT30;64644;48.914;2.254;2022-11-20T14:17:33;12.24;74.85
75961;SHT30;64644;48.914;2.254;2022-11-20T14:20:03;12.29;74.74
75961;SHT30;64644;48.914;2.254;2022-11-20T14:22:29;12.30;74.46
75961;SHT30;64644;48.914;2.254;2022-11-20T14:27:43;12.36;74.68
75961;SHT30;64644;48.914;2.254;2022-11-20T14:30:19;12.37;74.58
75961;SHT30;64644;48.914;2.254;2022-11-20T14:32:46;12.38;74.73
75961;SHT30;64644;48.914;2.254;2022-11-20T14:35:25;12.41;74.79
75961;SHT30;64644;48.914;2.254;2022-11-20T14:37:52;12.44;74.60
75961;SHT30;64644;48.914;2.254;2022-11-20T14:42:52;12.49;74.57
75961;SHT30;64644;48.914;2.254;2022-11-20T14:45:18;12.49;74.56
75961;SHT30;64644;48.914;2.254;2022-11-20T14:47:44;12.52;74.54
75961;SHT30;64644;48.914;2.254;2022-11-20T14:50:24;12.54;74.50
75961;SHT30;64644;48.914;2.254;2022-11-20T14:52:58;12.55;74.69
75961;SHT30;64644;48.914;2.254;2022-11-20T14:55:32;12.54;74.53
75961;SHT30;64644;48.914;2.254;2022-11-20T14:58:04;12.57;74.60
75961;SHT30;64644;48.914;2.254;2022-11-20T15:00:31;12.62;74.47
75961;SHT30;64644;48.914;2.254;2022-11-20T15:02:57;12.65;74.41
75961;SHT30;64644;48.914;2.254;2022-11-20T15:05:44;12.66;74.28
75961;SHT30;64644;48.914;2.254;2022-11-20T15:08:11;12.68;74.33
75961;SHT30;64644;48.914;2.254;2022-11-20T15:10:38;12.66;74.32
75961;SHT30;64644;48.914;2.254;2022-11-20T15:13:19;12.66;74.37
75961;SHT30;64644;48.914;2.254;2022-11-20T15:15:51;12.71;74.18
75961;SHT30;64644;48.914;2.254;2022-11-20T15:18:32;12.69;74.37
75961;SHT30;64644;48.914;2.254;2022-11-20T15:21:04;12.71;74.28
75961;SHT30;64644;48.914;2.254;2022-11-20T15:23:31;12.74;74.00
75961;SHT30;64644;48.914;2.254;2022-11-20T15:25:57;12.75;74.17
75961;SHT30;64644;48.914;2.254;2022-11-20T15:28:40;12.72;73.81
75961;SHT30;64644;48.914;2.254;2022-11-20T15:31:09;12.75;73.78
75961;SHT30;64644;48.914;2.254;2022-11-20T15:33:36;12.78;73.63
75961;SHT30;64644;48.914;2.254;2022-11-20T15:36:01;12.78;73.20
75961;SHT30;64644;48.914;2.254;2022-11-20T15:38:27;12.79;73.02
75961;SHT30;64644;48.914;2.254;2022-11-20T15:40:52;12.79;72.91
75961;SHT30;64644;48.914;2.254;2022-11-20T15:43:17;12.76;72.58
75961;SHT30;64644;48.914;2.254;2022-11-20T15:45:46;12.75;72.18
75961;SHT30;64644;48.914;2.254;2022-11-20T15:48:21;12.71;71.67
75961;SHT30;64644;48.914;2.254;2022-11-20T15:53:19;12.68;71.23
75961;SHT30;64644;48.914;2.254;2022-11-20T15:55:45;12.64;70.52
75961;SHT30;64644;48.914;2.254;2022-11-20T15:58:10;12.64;70.65
75961;SHT30;64644;48.914;2.254;2022-11-20T16:00:35;12.65;70.67
75961;SHT30;64644;48.914;2.254;2022-11-20T16:03:01;12.62;69.69
75961;SHT30;64644;48.914;2.254;2022-11-20T16:05:30;12.61;70.00
75961;SHT30;64644;48.914;2.254;2022-11-20T16:07:55;12.58;69.63
75961;SHT30;64644;48.914;2.254;2022-11-20T16:10:22;12.58;69.48
75961;SHT30;64644;48.914;2.254;2022-11-20T16:12:47;12.55;69.66
75961;SHT30;64644;48.914;2.254;2022-11-20T16:15:31;12.52;69.14
75961;SHT30;64644;48.914;2.254;2022-11-20T16:18:17;12.51;69.21
75961;SHT30;64644;48.914;2.254;2022-11-20T16:20:44;12.48;69.34
75961;SHT30;64644;48.914;2.254;2022-11-20T16:23:10;12.45;69.68
75961;SHT30;64644;48.914;2.254;2022-11-20T16:25:36;12.47;69.80
75961;SHT30;64644;48.914;2.254;2022-11-20T16:28:02;12.40;69.39
75961;SHT30;64644;48.914;2.254;2022-11-20T16:30:27;12.36;69.29
75961;SHT30;64644;48.914;2.254;2022-11-20T16:32:53;12.31;69.39
75961;SHT30;64644;48.914;2.254;2022-11-20T16:35:18;12.31;69.77
75961;SHT30;64644;48.914;2.254;2022-11-20T16:37:43;12.27;69.61
75961;SHT30;64644;48.914;2.254;2022-11-20T16:40:10;12.26;69.65
75961;SHT30;64644;48.914;2.254;2022-11-20T16:42:36;12.26;69.89
75961;SHT30;64644;48.914;2.254;2022-11-20T16:45:03;12.23;69.64
75961;SHT30;64644;48.914;2.254;2022-11-20T16:47:33;12.23;69.78
75961;SHT30;64644;48.914;2.254;2022-11-20T16:49:59;12.21;69.80
75961;SHT30;64644;48.914;2.254;2022-11-20T16:52:24;12.20;69.86
75961;SHT30;64644;48.914;2.254;2022-11-20T16:54:49;12.17;69.83
75961;SHT30;64644;48.914;2.254;2022-11-20T16:57:14;12.14;69.90
75961;SHT30;64644;48.914;2.254;2022-11-20T16:59:40;12.12;70.01
75961;SHT30;64644;48.914;2.254;2022-11-20T17:02:10;12.10;69.81
75961;SHT30;64644;48.914;2.254;2022-11-20T17:04:36;12.10;69.82
75961;SHT30;64644;48.914;2.254;2022-11-20T17:07:01;12.06;69.84
75961;SHT30;64644;48.914;2.254;2022-11-20T17:09:27;12.00;69.98